sensor_id;sensor_type;location;lat;lon;timestamp;pressure;altitude;pressure_sealevel;temperature;humidity
20019;BME280;10170;42.502;26.526;2023-02-19T00:01:17;99890.59;;;10.33;100.00
20019;BME280;10170;42.502;26.526;2023-02-19T00:03:52;99905.56;;;10.41;100.00
20019;BME280;10170;42.502;26.526;2023-02-19T00:06:21;99879.13;;;10.33;100.00
20019;BME280;10170;42.502;26.526;2023-02-19T00:08:48;99890.19;;;10.36;100.00
20019;BME280;10170;42.502;26.526;2023-02-19T00:11:18;99874.66;;;10.33;100.00
20019;BME280;10170;42.502;26.526;2023-02-19T00:13:47;99883.88;;;10.44;100.00
20019;BME280;10170;42.502;26.526;2023-02-19T00:16:32;99893.31;;;10.46;100.00
20019;BME280;10170;42.502;26.526;2023-02-19T00:19:00;99894.53;;;10.50;99.12
20019;BME280;10170;42.502;26.526;2023-02-19T00:21:29;99867.84;;;10.24;100.00
20019;BME280;10170;42.502;26.526;2023-02-19T00:23:58;99864.78;;;10.21;100.00
20019;BME280;10170;42.502;26.526;2023-02-19T00:26:25;99882.78;;;10.25;100.00
20019;BME280;10170;42.502;26.526;2023-02-19T00:28:54;99880.75;;;10.27;100.00
20019;BME280;10170;42.502;26.526;2023-02-19T00:31:23;99883.88;;;10.44;99.93
20019;BME280;10170;42.502;26.526;2023-02-19T00:33:56;99882.06;;;10.51;97.59
20019;BME280;10170;42.502;26.526;2023-02-19T00:36:24;99876.53;;;10.39;98.31
20019;BME280;10170;42.502;26.526;2023-02-19T00:38:51;99869.75;;;10.43;98.97
20019;BME280;10170;42.502;26.526;2023-02-19T00:41:19;99849.31;;;10.37;99.78
20019;BME280;10170;42.502;26.526;2023-02-19T00:46:30;99837.66;;;10.38;100.00
20019;BME280;10170;42.502;26.526;2023-02-19T00:48:57;99845.84;;;10.37;100.00
20019;BME280;10170;42.502;26.526;2023-02-19T00:51:27;99847.88;;;10.35;100.00
20019;BME280;10170;42.502;26.526;2023-02-19T00:53:54;99843.94;;;10.18;100.00
20019;BME280;10170;42.502;26.526;2023-02-19T00:56:21;99844.72;;;10.18;100.00
20019;BME280;10170;42.502;26.526;2023-02-19T00:58:48;99846.19;;;10.21;100.00
20019;BME280;10170;42.502;26.526;2023-02-19T01:01:16;99837.78;;;10.17;100.00
20019;BME280;10170;42.502;26.526;2023-02-19T01:03:43;99857.88;;;10.33;100.00
20019;BME280;10170;42.502;26.526;2023-02-19T01:06:12;99853.72;;;10.17;100.00
20019;BME280;10170;42.502;26.526;2023-02-19T01:08:40;99842.78;;;9.99;100.00
20019;BME280;10170;42.502;26.526;2023-02-19T01:11:08;99840.09;;;9.93;100.00
20019;BME280;10170;42.502;26.526;2023-02-19T01:13:36;99836.81;;;9.91;100.00
20019;BME280;10170;42.502;26.526;2023-02-19T01:16:09;99836.25;;;10.02;100.00
20019;BME280;10170;42.502;26.526;2023-02-19T01:18:37;99832.75;;;9.95;100.00
20019;BME280;10170;42.502;26.526;2023-02-19T01:21:15;99832.91;;;9.87;100.00
20019;BME280;10170;42.502;26.526;2023-02-19T01:23:42;99827.41;;;9.88;100.00
20019;BME280;10170;42.502;26.526;2023-02-19T01:26:13;99827.16;;;9.83;100.00
20019;BME280;10170;42.502;26.526;2023-02-19T01:28:40;99828.16;;;9.76;100.00
20019;BME280;10170;42.502;26.526;2023-02-19T01:31:11;99818.75;;;9.73;100.00
20019;BME280;10170;42.502;26.526;2023-02-19T01:33:38;99810.97;;;9.72;100.00
20019;BME280;10170;42.502;26.526;2023-02-19T01:36:06;99814.09;;;9.82;100.00
20019;BME280;10170;42.502;26.526;2023-02-19T01:38:33;99816.66;;;9.69;100.00
20019;BME280;10170;42.502;26.526;2023-02-19T01:41:02;99809.94;;;9.66;100.00
20019;BME280;10170;42.502;26.526;2023-02-19T01:43:33;99810.50;;;9.62;100.00
20019;BME280;10170;42.502;26.526;2023-02-19T01:46:01;99808.91;;;9.67;100.00
20019;BME280;10170;42.502;26.526;2023-02-19T01:48:38;99780.28;;;9.63;100.00
20019;BME280;10170;42.502;26.526;2023-02-19T01:51:08;99791.69;;;9.56;100.00
20019;BME280;10170;42.502;26.526;2023-02-19T01:53:40;99785.34;;;9.51;100.00
20019;BME280;10170;42.502;26.526;2023-02-19T01:56:09;99804.94;;;9.50;100.00
20019;BME280;10170;42.502;26.526;2023-02-19T01:58:37;99803.47;;;9.47;100.00
20019;BME280;10170;42.502;26.526;2023-02-19T02:01:06;99790.53;;;9.31;100.00
20019;BME280;10170;42.502;26.526;2023-02-19T02:03:35;99811.53;;;9.33;100.00
20019;BME280;10170;42.502;26.526;2023-02-19T02:06:22;99799.03;;;9.27;100.00
20019;BME280;10170;42.502;26.526;2023-02-19T02:08:54;99799.44;;;9.24;100.00
20019;BME280;10170;42.502;26.526;2023-02-19T02:11:44;99789.06;;;9.29;100.00
20019;BME280;10170;42.502;26.526;2023-02-19T02:14:13;99769.31;;;9.38;100.00
20019;BME280;10170;42.502;26.526;2023-02-19T02:20:06;99778.31;;;9.37;100.00
20019;BME280;10170;42.502;26.526;2023-02-19T02:29:31;99789.88;;;9.02;100.00
20019;BME280;10170;42.502;26.526;2023-02-19T02:32:20;99797.59;;;8.97;100.00
20019;BME280;10170;42.502;26.526;2023-02-19T02:34:53;99802.03;;;8.90;100.00
20019;BME280;10170;42.502;26.526;2023-02-19T02:37:23;99801.38;;;8.88;100.00
20019;BME280;10170;42.502;26.526;2023-02-19T02:39:51;99795.09;;;8.68;100.00
20019;BME280;10170;42.502;26.526;2023-02-19T02:42:19;99801.22;;;8.68;100.00
20019;BME280;10170;42.502;26.526;2023-02-19T02:44:56;99805.81;;;8.81;100.00
20019;BME280;10170;42.502;26.526;2023-02-19T02:47:48;99799.44;;;8.75;100.00
20019;BME280;10170;42.502;26.526;2023-02-19T02:50:23;99806.00;;;8.79;100.00
20019;BME280;10170;42.502;26.526;2023-02-19T02:52:57;99812.06;;;8.73;100.00
20019;BME280;10170;42.502;26.526;2023-02-19T02:55:45;99801.22;;;8.68;100.00
20019;BME280;10170;42.502;26.526;2023-02-19T02:58:13;99809.03;;;8.55;100.00
20019;BME280;10170;42.502;26.526;2023-02-19T03:00:42;99795.34;;;8.51;100.00
20019;BME280;10170;42.502;26.526;2023-02-19T03:03:31;99780.66;;;8.28;100.00
20019;BME280;10170;42.502;26.526;2023-02-19T03:06:03;99802.34;;;8.38;100.00
20019;BME280;10170;42.502;26.526;2023-02-19T03:08:38;99825.16;;;8.39;100.00
20019;BME280;10170;42.502;26.526;2023-02-19T03:11:10;99830.75;;;8.44;100.00
20019;BME280;10170;42.502;26.526;2023-02-19T03:14:34;99840.38;;;8.01;100.00
20019;BME280;10170;42.502;26.526;2023-02-19T03:17:16;99852.44;;;8.04;100.00
20019;BME280;10170;42.502;26.526;2023-02-19T03:20:07;99861.56;;;8.30;100.00
20019;BME280;10170;42.502;26.526;2023-02-19T03:22:37;99863.56;;;8.28;100.00
20019;BME280;10170;42.502;26.526;2023-02-19T03:25:27;99866.84;;;8.30;100.00
20019;BME280;10170;42.502;26.526;2023-02-19T03:28:13;99846.75;;;8.21;100.00
20019;BME280;10170;42.502;26.526;2023-02-19T03:30:46;99857.34;;;8.36;100.00
20019;BME280;10170;42.502;26.526;2023-02-19T03:33:19;99868.13;;;8.34;100.00
20019;BME280;10170;42.502;26.526;2023-02-19T03:36:03;99878.44;;;8.44;100.00
20019;BME280;10170;42.502;26.526;2023-02-19T03:38:54;99858.78;;;8.53;100.00
20019;BME280;10170;42.502;26.526;2023-02-19T03:47:14;99845.44;;;8.46;100.00
20019;BME280;10170;42.502;26.526;2023-02-19T03:57:35;99858.59;;;8.76;100.00
20019;BME280;10170;42.502;26.526;2023-02-19T04:05:17;99867.41;;;8.62;100.00
20019;BME280;10170;42.502;26.526;2023-02-19T04:07:48;99874.84;;;8.51;100.00
20019;BME280;10170;42.502;26.526;2023-02-19T04:10:16;99871.50;;;8.43;100.00
20019;BME280;10170;42.502;26.526;2023-02-19T04:12:51;99864.78;;;8.26;100.00
20019;BME280;10170;42.502;26.526;2023-02-19T04:15:23;99868.06;;;8.13;100.00
20019;BME280;10170;42.502;26.526;2023-02-19T04:18:38;99870.31;;;8.16;100.00
20019;BME280;10170;42.502;26.526;2023-02-19T04:20:45;99880.66;;;8.26;100.00
20019;BME280;10170;42.502;26.526;2023-02-19T04:23:16;99878.06;;;8.18;100.00
20019;BME280;10170;42.502;26.526;2023-02-19T04:25:46;99877.81;;;8.13;100.00
20019;BME280;10170;42.502;26.526;2023-02-19T04:28:16;99875.94;;;7.92;100.00
20019;BME280;10170;42.502;26.526;2023-02-19T04:30:43;99881.56;;;7.89;100.00
20019;BME280;10170;42.502;26.526;2023-02-19T04:33:10;99880.19;;;7.93;100.00
20019;BME280;10170;42.502;26.526;2023-02-19T04:35:37;99874.97;;;7.85;100.00
20019;BME280;10170;42.502;26.526;2023-02-19T04:38:04;99869.53;;;7.87;100.00
20019;BME280;10170;42.502;26.526;2023-02-19T04:40:31;99859.09;;;7.85;100.00
20019;BME280;10170;42.502;26.526;2023-02-19T04:42:57;99872.72;;;7.97;100.00
20019;BME280;10170;42.502;26.526;2023-02-19T04:45:24;99862.38;;;8.02;100.00
20019;BME280;10170;42.502;26.526;2023-02-19T04:47:51;99862.38;;;8.02;100.00
20019;BME280;10170;42.502;26.526;2023-02-19T04:50:17;99866.19;;;8.14;100.00
20019;BME280;10170;42.502;26.526;2023-02-19T04:52:44;99867.63;;;8.24;100.00
20019;BME280;10170;42.502;26.526;2023-02-19T04:55:11;99870.97;;;8.18;100.00
20019;BME280;10170;42.502;26.526;2023-02-19T04:57:38;99860.84;;;8.07;100.00
20019;BME280;10170;42.502;26.526;2023-02-19T05:00:05;99863.28;;;8.09;100.00
20019;BME280;10170;42.502;26.526;2023-02-19T05:02:32;99871.50;;;8.14;100.00
20019;BME280;10170;42.502;26.526;2023-02-19T05:04:59;99873.25;;;8.07;100.00
20019;BME280;10170;42.502;26.526;2023-02-19T05:07:25;99871.53;;;7.99;100.00
20019;BME280;10170;42.502;26.526;2023-02-19T05:09:52;99888.47;;;8.19;100.00
20019;BME280;10170;42.502;26.526;2023-02-19T05:12:19;99884.84;;;8.20;100.00
20019;BME280;10170;42.502;26.526;2023-02-19T05:14:46;99888.41;;;8.13;100.00
20019;BME280;10170;42.502;26.526;2023-02-19T05:17:12;99899.19;;;8.11;100.00
20019;BME280;10170;42.502;26.526;2023-02-19T05:19:39;99901.19;;;8.09;100.00
20019;BME280;10170;42.502;26.526;2023-02-19T05:22:06;99896.09;;;7.93;100.00
20019;BME280;10170;42.502;26.526;2023-02-19T05:24:32;99912.50;;;8.03;100.00
20019;BME280;10170;42.502;26.526;2023-02-19T05:26:59;99884.50;;;7.80;100.00
20019;BME280;10170;42.502;26.526;2023-02-19T05:29:26;99892.72;;;7.99;100.00
20019;BME280;10170;42.502;26.526;2023-02-19T05:31:52;99899.91;;;8.05;100.00
20019;BME280;10170;42.502;26.526;2023-02-19T05:34:19;99911.06;;;8.15;100.00
20019;BME280;10170;42.502;26.526;2023-02-19T05:36:46;99910.88;;;8.17;100.00
20019;BME280;10170;42.502;26.526;2023-02-19T05:39:13;99903.13;;;8.15;100.00
20019;BME280;10170;42.502;26.526;2023-02-19T05:41:40;99910.31;;;8.21;100.00
20019;BME280;10170;42.502;26.526;2023-02-19T05:44:09;99913.69;;;8.30;100.00
20019;BME280;10170;42.502;26.526;2023-02-19T05:46:35;99917.94;;;8.24;100.00
20019;BME280;10170;42.502;26.526;2023-02-19T05:49:02;99917.16;;;8.16;100.00
20019;BME280;10170;42.502;26.526;2023-02-19T05:51:29;99926.38;;;8.20;100.00
20019;BME280;10170;42.502;26.526;2023-02-19T05:53:56;99920.00;;;8.14;100.00
20019;BME280;10170;42.502;26.526;2023-02-19T05:59:23;99926.41;;;8.34;100.00
20019;BME280;10170;42.502;26.526;2023-02-19T06:01:52;99930.50;;;8.08;100.00
20019;BME280;10170;42.502;26.526;2023-02-19T06:04:20;99941.91;;;8.23;100.00
20019;BME280;10170;42.502;26.526;2023-02-19T06:06:47;99944.06;;;8.27;100.00
20019;BME280;10170;42.502;26.526;2023-02-19T06:09:14;99947.34;;;8.44;100.00
20019;BME280;10170;42.502;26.526;2023-02-19T06:11:40;99950.63;;;8.46;100.00
20019;BME280;10170;42.502;26.526;2023-02-19T06:14:11;99953.53;;;8.51;100.00
20019;BME280;10170;42.502;26.526;2023-02-19T06:16:38;99941.88;;;8.67;100.00
20019;BME280;10170;42.502;26.526;2023-02-19T06:19:04;99948.31;;;8.58;100.00
20019;BME280;10170;42.502;26.526;2023-02-19T06:21:31;99940.03;;;8.31;100.00
20019;BME280;10170;42.502;26.526;2023-02-19T06:24:03;99925.22;;;8.22;100.00
20019;BME280;10170;42.502;26.526;2023-02-19T06:26:29;99932.16;;;8.52;100.00
20019;BME280;10170;42.502;26.526;2023-02-19T06:28:56;99940.06;;;9.03;100.00
20019;BME280;10170;42.502;26.526;2023-02-19T06:31:23;99947.91;;;9.32;100.00
20019;BME280;10170;42.502;26.526;2023-02-19T06:33:50;99947.69;;;9.54;100.00
20019;BME280;10170;42.502;26.526;2023-02-19T06:36:19;99951.53;;;9.31;100.00
20019;BME280;10170;42.502;26.526;2023-02-19T06:38:46;99948.94;;;9.16;100.00
20019;BME280;10170;42.502;26.526;2023-02-19T06:41:13;99953.56;;;9.50;100.00
20019;BME280;10170;42.502;26.526;2023-02-19T06:43:40;99955.03;;;9.80;100.00
20019;BME280;10170;42.502;26.526;2023-02-19T06:46:07;99958.06;;;10.05;100.00
20019;BME280;10170;42.502;26.526;2023-02-19T06:48:34;99958.94;;;10.12;100.00
20019;BME280;10170;42.502;26.526;2023-02-19T06:51:01;99966.34;;;9.89;100.00
20019;BME280;10170;42.502;26.526;2023-02-19T06:53:29;99968.31;;;9.80;100.00
20019;BME280;10170;42.502;26.526;2023-02-19T06:56:00;99970.72;;;9.75;100.00
20019;BME280;10170;42.502;26.526;2023-02-19T06:58:28;99972.13;;;9.99;100.00
20019;BME280;10170;42.502;26.526;2023-02-19T07:00:55;99970.88;;;10.63;100.00
20019;BME280;10170;42.502;26.526;2023-02-19T07:03:22;99971.41;;;10.93;100.00
20019;BME280;10170;42.502;26.526;2023-02-19T07:05:49;99977.66;;;11.45;100.00
20019;BME280;10170;42.502;26.526;2023-02-19T07:08:16;99969.69;;;11.52;100.00
20019;BME280;10170;42.502;26.526;2023-02-19T07:10:44;99967.19;;;11.24;100.00
20019;BME280;10170;42.502;26.526;2023-02-19T07:13:11;99969.78;;;11.05;100.00
20019;BME280;10170;42.502;26.526;2023-02-19T07:15:37;99971.03;;;11.15;100.00
20019;BME280;10170;42.502;26.526;2023-02-19T07:18:04;99971.50;;;11.38;100.00
20019;BME280;10170;42.502;26.526;2023-02-19T07:20:35;99970.09;;;11.62;100.00
20019;BME280;10170;42.502;26.526;2023-02-19T07:23:02;99973.41;;;11.77;100.00
20019;BME280;10170;42.502;26.526;2023-02-19T07:25:29;99965.59;;;11.89;100.00
20019;BME280;10170;42.502;26.526;2023-02-19T07:27:56;99959.56;;;12.45;100.00
20019;BME280;10170;42.502;26.526;2023-02-19T07:30:23;99962.81;;;12.98;100.00
20019;BME280;10170;42.502;26.526;2023-02-19T07:32:51;99966.34;;;12.92;100.00
20019;BME280;10170;42.502;26.526;2023-02-19T07:35:18;99973.38;;;13.24;100.00
20019;BME280;10170;42.502;26.526;2023-02-19T07:37:44;99967.03;;;13.50;100.00
20019;BME280;10170;42.502;26.526;2023-02-19T07:40:11;99958.91;;;13.88;100.00
20019;BME280;10170;42.502;26.526;2023-02-19T07:42:38;99965.31;;;13.62;100.00
20019;BME280;10170;42.502;26.526;2023-02-19T07:45:05;99960.06;;;13.73;100.00
20019;BME280;10170;42.502;26.526;2023-02-19T07:47:32;99956.88;;;14.08;99.74
20019;BME280;10170;42.502;26.526;2023-02-19T07:49:58;99961.16;;;13.66;98.26
20019;BME280;10170;42.502;26.526;2023-02-19T07:52:25;99956.00;;;14.14;97.75
20019;BME280;10170;42.502;26.526;2023-02-19T07:54:52;99953.91;;;14.40;91.27
20019;BME280;10170;42.502;26.526;2023-02-19T07:57:19;99962.25;;;14.98;87.15
20019;BME280;10170;42.502;26.526;2023-02-19T07:59:46;99954.38;;;14.85;84.17
20019;BME280;10170;42.502;26.526;2023-02-19T08:02:17;99942.56;;;14.93;82.49
20019;BME280;10170;42.502;26.526;2023-02-19T08:05:04;99940.97;;;15.03;80.29
20019;BME280;10170;42.502;26.526;2023-02-19T08:07:33;99933.13;;;15.31;78.84
20019;BME280;10170;42.502;26.526;2023-02-19T08:10:00;99950.13;;;14.96;78.06
20019;BME280;10170;42.502;26.526;2023-02-19T08:12:54;99947.88;;;15.22;77.53
20019;BME280;10170;42.502;26.526;2023-02-19T08:15:39;99940.84;;;15.10;76.87
20019;BME280;10170;42.502;26.526;2023-02-19T08:18:07;99932.75;;;15.16;76.47
20019;BME280;10170;42.502;26.526;2023-02-19T08:20:34;99940.97;;;15.15;76.18
20019;BME280;10170;42.502;26.526;2023-02-19T08:23:00;99934.13;;;15.19;76.47
20019;BME280;10170;42.502;26.526;2023-02-19T08:25:27;99945.81;;;15.65;74.82
20019;BME280;10170;42.502;26.526;2023-02-19T08:27:54;99944.63;;;15.50;74.17
20019;BME280;10170;42.502;26.526;2023-02-19T08:30:21;99942.19;;;15.60;73.40
20019;BME280;10170;42.502;26.526;2023-02-19T08:32:48;99939.31;;;15.96;73.35
20019;BME280;10170;42.502;26.526;2023-02-19T08:35:15;99933.50;;;16.62;70.93
20019;BME280;10170;42.502;26.526;2023-02-19T08:37:42;99922.13;;;16.83;68.68
20019;BME280;10170;42.502;26.526;2023-02-19T08:40:09;99924.09;;;16.36;68.76
20019;BME280;10170;42.502;26.526;2023-02-19T08:42:36;99922.69;;;17.13;66.76
20019;BME280;10170;42.502;26.526;2023-02-19T08:45:03;99911.09;;;17.24;64.62
20019;BME280;10170;42.502;26.526;2023-02-19T08:47:32;99916.44;;;17.69;63.55
20019;BME280;10170;42.502;26.526;2023-02-19T08:50:00;99891.88;;;17.82;61.35
20019;BME280;10170;42.502;26.526;2023-02-19T08:52:26;99915.41;;;17.92;61.26
20019;BME280;10170;42.502;26.526;2023-02-19T08:54:53;99905.56;;;17.80;61.92
20019;BME280;10170;42.502;26.526;2023-02-19T08:57:20;99906.94;;;18.00;61.22
20019;BME280;10170;42.502;26.526;2023-02-19T08:59:47;99910.38;;;17.45;61.35
20019;BME280;10170;42.502;26.526;2023-02-19T09:02:14;99916.09;;;17.65;61.42
20019;BME280;10170;42.502;26.526;2023-02-19T09:04:40;99897.25;;;18.20;60.35
20019;BME280;10170;42.502;26.526;2023-02-19T09:07:08;99890.06;;;18.26;59.84
20019;BME280;10170;42.502;26.526;2023-02-19T09:09:36;99898.19;;;18.31;58.42
20019;BME280;10170;42.502;26.526;2023-02-19T09:12:05;99902.63;;;18.80;56.58
20019;BME280;10170;42.502;26.526;2023-02-19T09:14:32;99898.78;;;18.76;56.26
20019;BME280;10170;42.502;26.526;2023-02-19T09:17:01;99890.31;;;18.89;55.83
20019;BME280;10170;42.502;26.526;2023-02-19T09:19:28;99891.50;;;18.98;55.73
20019;BME280;10170;42.502;26.526;2023-02-19T09:21:55;99886.16;;;19.03;55.51
20019;BME280;10170;42.502;26.526;2023-02-19T09:24:22;99885.66;;;19.38;56.12
20019;BME280;10170;42.502;26.526;2023-02-19T09:26:52;99883.88;;;19.85;54.85
20019;BME280;10170;42.502;26.526;2023-02-19T09:29:23;99870.44;;;19.95;54.36
20019;BME280;10170;42.502;26.526;2023-02-19T09:31:50;99876.66;;;20.47;52.49
20019;BME280;10170;42.502;26.526;2023-02-19T09:34:20;99856.72;;;19.28;54.74
20019;BME280;10170;42.502;26.526;2023-02-19T09:36:48;99874.72;;;20.33;54.70
20019;BME280;10170;42.502;26.526;2023-02-19T09:39:15;99865.06;;;20.47;53.10
20019;BME280;10170;42.502;26.526;2023-02-19T09:44:45;99871.19;;;20.27;52.26
20019;BME280;10170;42.502;26.526;2023-02-19T09:47:22;99871.50;;;19.94;52.04
20019;BME280;10170;42.502;26.526;2023-02-19T09:49:53;99868.25;;;20.34;51.19
20019;BME280;10170;42.502;26.526;2023-02-19T09:52:44;99866.03;;;21.08;50.04
20019;BME280;10170;42.502;26.526;2023-02-19T09:55:29;99862.28;;;21.29;49.24
20019;BME280;10170;42.502;26.526;2023-02-19T09:57:59;99844.97;;;21.40;47.87
20019;BME280;10170;42.502;26.526;2023-02-19T10:00:28;99855.19;;;21.93;46.98
20019;BME280;10170;42.502;26.526;2023-02-19T10:03:11;99857.94;;;22.62;45.94
20019;BME280;10170;42.502;26.526;2023-02-19T10:05:40;99840.25;;;22.11;46.20
20019;BME280;10170;42.502;26.526;2023-02-19T10:08:14;99852.78;;;21.81;46.98
20019;BME280;10170;42.502;26.526;2023-02-19T10:10:44;99838.84;;;22.23;46.47
20019;BME280;10170;42.502;26.526;2023-02-19T10:13:18;99840.25;;;22.06;45.64
20019;BME280;10170;42.502;26.526;2023-02-19T10:15:51;99834.44;;;22.37;45.06
20019;BME280;10170;42.502;26.526;2023-02-19T10:18:23;99834.69;;;23.33;44.85
20019;BME280;10170;42.502;26.526;2023-02-19T10:20:51;99807.97;;;23.74;42.69
20019;BME280;10170;42.502;26.526;2023-02-19T10:23:18;99814.78;;;23.95;42.96
20019;BME280;10170;42.502;26.526;2023-02-19T10:25:49;99817.88;;;24.12;43.41
20019;BME280;10170;42.502;26.526;2023-02-19T10:28:18;99803.59;;;24.25;42.25
20019;BME280;10170;42.502;26.526;2023-02-19T10:30:53;99801.22;;;23.71;42.65
20019;BME280;10170;42.502;26.526;2023-02-19T10:33:20;99806.78;;;23.56;42.12
20019;BME280;10170;42.502;26.526;2023-02-19T10:35:59;99808.59;;;23.66;42.49
20019;BME280;10170;42.502;26.526;2023-02-19T10:38:46;99783.41;;;23.32;42.40
20019;BME280;10170;42.502;26.526;2023-02-19T10:41:16;99762.00;;;23.77;42.12
20019;BME280;10170;42.502;26.526;2023-02-19T10:43:50;99773.38;;;23.27;41.83
20019;BME280;10170;42.502;26.526;2023-02-19T10:46:23;99774.78;;;23.20;43.19
20019;BME280;10170;42.502;26.526;2023-02-19T10:48:56;99761.38;;;23.62;41.78
20019;BME280;10170;42.502;26.526;2023-02-19T10:51:43;99761.69;;;24.08;41.47
20019;BME280;10170;42.502;26.526;2023-02-19T10:54:30;99753.81;;;24.48;40.92
20019;BME280;10170;42.502;26.526;2023-02-19T10:59:51;99737.97;;;24.13;40.88
20019;BME280;10170;42.502;26.526;2023-02-19T11:02:20;99752.13;;;23.86;42.94
20019;BME280;10170;42.502;26.526;2023-02-19T11:07:36;99754.69;;;24.81;40.16
20019;BME280;10170;42.502;26.526;2023-02-19T11:10:05;99741.47;;;25.07;40.20
20019;BME280;10170;42.502;26.526;2023-02-19T11:12:33;99751.88;;;24.67;40.49
20019;BME280;10170;42.502;26.526;2023-02-19T11:15:17;99734.09;;;24.38;39.86
20019;BME280;10170;42.502;26.526;2023-02-19T11:17:53;99726.41;;;24.02;39.72
20019;BME280;10170;42.502;26.526;2023-02-19T11:20:20;99737.44;;;24.11;41.11
20019;BME280;10170;42.502;26.526;2023-02-19T11:22:48;99726.84;;;24.15;41.91
20019;BME280;10170;42.502;26.526;2023-02-19T11:35:49;99714.69;;;24.63;40.66
20019;BME280;10170;42.502;26.526;2023-02-19T11:38:18;99713.53;;;24.50;41.39
20019;BME280;10170;42.502;26.526;2023-02-19T11:41:12;99707.72;;;24.38;40.54
20019;BME280;10170;42.502;26.526;2023-02-19T12:14:57;99648.91;;;24.61;39.17
20019;BME280;10170;42.502;26.526;2023-02-19T12:17:42;99662.50;;;23.68;39.92
20019;BME280;10170;42.502;26.526;2023-02-19T12:26:19;99646.38;;;23.53;39.86
20019;BME280;10170;42.502;26.526;2023-02-19T12:34:12;99654.47;;;23.06;41.07
20019;BME280;10170;42.502;26.526;2023-02-19T12:42:38;99638.44;;;22.47;42.05
20019;BME280;10170;42.502;26.526;2023-02-19T12:45:25;99636.78;;;22.12;42.42
20019;BME280;10170;42.502;26.526;2023-02-19T12:48:00;99633.59;;;22.05;42.23
20019;BME280;10170;42.502;26.526;2023-02-19T12:50:30;99639.50;;;22.17;42.24
20019;BME280;10170;42.502;26.526;2023-02-19T12:53:05;99637.13;;;22.44;41.63
20019;BME280;10170;42.502;26.526;2023-02-19T12:55:38;99635.16;;;22.55;41.95
20019;BME280;10170;42.502;26.526;2023-02-19T12:58:11;99638.31;;;22.95;41.26
20019;BME280;10170;42.502;26.526;2023-02-19T13:00:52;99633.78;;;22.52;41.59
20019;BME280;10170;42.502;26.526;2023-02-19T13:03:31;99636.31;;;22.44;42.04
20019;BME280;10170;42.502;26.526;2023-02-19T13:08:45;99648.63;;;22.65;41.66
20019;BME280;10170;42.502;26.526;2023-02-19T13:14:32;99643.22;;;22.65;41.95
20019;BME280;10170;42.502;26.526;2023-02-19T13:17:07;99539.81;;;22.14;41.36
20019;BME280;10170;42.502;26.526;2023-02-19T13:19:38;99643.03;;;22.85;41.49
20019;BME280;10170;42.502;26.526;2023-02-19T13:25:05;99642.78;;;23.10;41.30
20019;BME280;10170;42.502;26.526;2023-02-19T13:27:46;99638.09;;;23.16;41.17
20019;BME280;10170;42.502;26.526;2023-02-19T13:36:35;99627.03;;;22.16;42.42
20019;BME280;10170;42.502;26.526;2023-02-19T13:39:06;99610.66;;;21.92;42.58
20019;BME280;10170;42.502;26.526;2023-02-19T13:41:49;99614.03;;;21.64;43.13
20019;BME280;10170;42.502;26.526;2023-02-19T13:44:37;99613.22;;;21.64;43.37
20019;BME280;10170;42.502;26.526;2023-02-19T13:50:21;99614.69;;;21.41;43.36
20019;BME280;10170;42.502;26.526;2023-02-19T13:52:51;99613.19;;;21.15;43.73
20019;BME280;10170;42.502;26.526;2023-02-19T14:01:09;99604.88;;;20.56;44.78
20019;BME280;10170;42.502;26.526;2023-02-19T14:03:52;99602.69;;;20.73;44.80
20019;BME280;10170;42.502;26.526;2023-02-19T14:06:19;99583.28;;;20.46;45.21
20019;BME280;10170;42.502;26.526;2023-02-19T14:08:57;99588.69;;;20.46;45.70
20019;BME280;10170;42.502;26.526;2023-02-19T14:14:24;99592.16;;;20.67;44.87
20019;BME280;10170;42.502;26.526;2023-02-19T14:17:44;99541.72;;;20.27;45.25
20019;BME280;10170;42.502;26.526;2023-02-19T14:19:52;99595.97;;;20.41;45.90
20019;BME280;10170;42.502;26.526;2023-02-19T14:30:21;99592.47;;;20.30;45.99
20019;BME280;10170;42.502;26.526;2023-02-19T14:32:49;99591.88;;;20.08;46.67
20019;BME280;10170;42.502;26.526;2023-02-19T14:35:45;99586.53;;;20.18;46.87
20019;BME280;10170;42.502;26.526;2023-02-19T14:38:25;99584.31;;;20.10;47.24
20019;BME280;10170;42.502;26.526;2023-02-19T14:40:54;99577.09;;;20.31;46.81
20019;BME280;10170;42.502;26.526;2023-02-19T14:43:23;99583.00;;;20.23;46.50
20019;BME280;10170;42.502;26.526;2023-02-19T14:46:01;99590.84;;;20.24;46.97
20019;BME280;10170;42.502;26.526;2023-02-19T14:48:37;99580.00;;;20.14;46.43
20019;BME280;10170;42.502;26.526;2023-02-19T14:51:09;99587.28;;;19.99;47.20
20019;BME280;10170;42.502;26.526;2023-02-19T14:53:42;99591.28;;;19.66;48.48
20019;BME280;10170;42.502;26.526;2023-02-19T14:56:20;99587.53;;;19.82;47.76
20019;BME280;10170;42.502;26.526;2023-02-19T14:59:20;99587.50;;;19.72;47.78
20019;BME280;10170;42.502;26.526;2023-02-19T15:02:02;99589.06;;;19.53;48.80
20019;BME280;10170;42.502;26.526;2023-02-19T15:04:35;99582.06;;;19.52;48.76
20019;BME280;10170;42.502;26.526;2023-02-19T15:07:06;99582.81;;;19.37;49.04
20019;BME280;10170;42.502;26.526;2023-02-19T15:09:41;99583.06;;;19.31;49.61
20019;BME280;10170;42.502;26.526;2023-02-19T15:12:43;99581.88;;;19.17;50.03
20019;BME280;10170;42.502;26.526;2023-02-19T15:15:17;99582.16;;;19.20;49.81
20019;BME280;10170;42.502;26.526;2023-02-19T15:17:46;99586.72;;;19.15;50.21
20019;BME280;10170;42.502;26.526;2023-02-19T15:20:17;99580.22;;;19.06;50.53
20019;BME280;10170;42.502;26.526;2023-02-19T15:22:45;99586.53;;;19.26;49.99
20019;BME280;10170;42.502;26.526;2023-02-19T15:25:17;99589.41;;;19.10;50.33
20019;BME280;10170;42.502;26.526;2023-02-19T15:27:44;99595.31;;;19.02;50.42